createdAt,value
2018-11-05T00:00:34.122Z,73.22
2018-11-05T00:05:56.837Z,73.86
2018-11-05T00:08:29.641Z,73.71
2018-11-05T00:11:02.663Z,74.04
2018-11-05T00:13:35.920Z,74.02
2018-11-05T00:16:09.460Z,73.69
2018-11-05T00:18:40.894Z,73.69
2018-11-05T00:21:13.820Z,73.14
2018-11-05T00:23:47.420Z,72.99
2018-11-05T00:26:20.412Z,72.78
2018-11-05T00:28:51.927Z,72.78
2018-11-05T00:31:25.328Z,72.59
2018-11-05T00:33:56.934Z,72.24
2018-11-05T00:36:30.250Z,72.22
2018-11-05T00:39:03.430Z,72.32
2018-11-05T00:41:34.883Z,72.37
2018-11-05T00:44:08.592Z,72.60
2018-11-05T00:46:41.561Z,72.46
2018-11-05T00:49:14.395Z,72.27
2018-11-05T00:54:08.762Z,72.26
2018-11-05T00:56:41.820Z,72.39
2018-11-05T00:59:14.788Z,72.39
2018-11-05T01:01:48.251Z,72.44
2018-11-05T01:04:21.081Z,72.52
2018-11-05T01:06:54.109Z,72.44
2018-11-05T01:09:27.252Z,72.62
2018-11-05T01:12:01.366Z,72.80
2018-11-05T01:14:33.025Z,72.83
2018-11-05T01:17:06.109Z,72.83
2018-11-05T01:19:41.201Z,72.75
2018-11-05T01:22:14.405Z,72.62
2018-11-05T01:24:45.829Z,72.59
2018-11-05T01:27:18.644Z,72.68
2018-11-05T01:29:51.561Z,73.03
2018-11-05T01:32:24.413Z,73.03
2018-11-05T01:34:55.716Z,73.25
2018-11-05T01:37:28.638Z,73.16
2018-11-05T01:40:01.818Z,73.16
2018-11-05T01:42:34.660Z,73.16
2018-11-05T01:45:08.659Z,72.70
2018-11-05T01:47:42.164Z,72.70
2018-11-05T01:50:17.127Z,72.53
2018-11-05T01:52:50.012Z,72.69
2018-11-05T01:55:23.095Z,72.65
2018-11-05T01:57:56.008Z,72.82
2018-11-05T02:00:29.107Z,72.59
2018-11-05T02:03:03.108Z,72.39
2018-11-05T02:05:36.098Z,72.57
2018-11-05T02:08:09.161Z,72.57
2018-11-05T02:10:42.154Z,72.84
2018-11-05T02:13:15.190Z,73.05
2018-11-05T02:15:48.165Z,72.94
2018-11-05T02:18:21.091Z,73.24
2018-11-05T02:20:54.131Z,73.19
2018-11-05T02:23:27.132Z,73.15
2018-11-05T02:26:00.138Z,73.16
2018-11-05T02:28:33.115Z,72.99
2018-11-05T02:31:06.117Z,72.82
2018-11-05T02:33:39.232Z,72.54
2018-11-05T02:36:12.390Z,72.16
2018-11-05T02:38:43.629Z,72.08
2018-11-05T02:41:16.512Z,72.04
2018-11-05T02:43:49.409Z,72.12
2018-11-05T02:46:20.876Z,72.12
2018-11-05T02:48:53.923Z,72.17
2018-11-05T02:51:26.619Z,72.03
2018-11-05T02:53:59.841Z,72.15
2018-11-05T02:56:32.617Z,72.15
2018-11-05T02:59:05.623Z,72.16
2018-11-05T03:04:17.660Z,71.90
2018-11-05T03:06:50.617Z,71.66
2018-11-05T03:09:23.472Z,71.33
2018-11-05T03:11:55.043Z,71.33
2018-11-05T03:14:28.236Z,71.33
2018-11-05T03:17:01.257Z,71.32
2018-11-05T03:21:49.658Z,71.10
2018-11-05T03:24:22.409Z,71.16
2018-11-05T03:26:53.886Z,71.06
2018-11-05T03:29:26.810Z,71.31
2018-11-05T03:31:59.617Z,71.49
2018-11-05T03:34:33.478Z,71.42
2018-11-05T03:37:06.341Z,71.31
2018-11-05T03:39:37.451Z,71.29
2018-11-05T03:42:09.269Z,71.08
2018-11-05T03:44:42.346Z,70.95
2018-11-05T03:47:15.414Z,70.70
2018-11-05T03:49:46.922Z,70.87
2018-11-05T03:52:19.657Z,70.86
2018-11-05T03:54:52.445Z,70.90
2018-11-05T03:57:23.529Z,70.90
2018-11-05T03:59:56.463Z,70.82
2018-11-05T04:02:27.448Z,70.71
2018-11-05T04:04:58.877Z,70.46
2018-11-05T04:07:31.658Z,70.36
2018-11-05T04:10:04.459Z,70.21
2018-11-05T04:12:35.912Z,70.00
2018-11-05T04:15:08.709Z,70.08
2018-11-05T04:17:41.536Z,70.05
2018-11-05T04:20:15.688Z,70.05
2018-11-05T04:22:48.467Z,69.89
2018-11-05T04:25:19.658Z,69.89
2018-11-05T04:27:52.626Z,69.86
2018-11-05T04:30:25.385Z,69.86
2018-11-05T04:35:45.661Z,69.31
2018-11-05T04:38:18.448Z,68.96
2018-11-05T04:40:49.836Z,69.04
2018-11-05T04:43:22.650Z,69.10
2018-11-05T04:45:55.536Z,69.10
2018-11-05T04:48:26.855Z,68.90
2018-11-05T04:50:59.611Z,68.98
2018-11-05T04:53:32.450Z,68.98
2018-11-05T04:56:03.847Z,69.24
2018-11-05T04:58:37.255Z,69.09
2018-11-05T05:01:10.437Z,69.02
2018-11-05T05:03:41.907Z,68.94
2018-11-05T05:06:14.654Z,68.77
2018-11-05T05:08:47.416Z,68.75
2018-11-05T05:11:21.344Z,68.75
2018-11-05T05:13:52.685Z,68.56
2018-11-05T05:16:25.598Z,68.60
2018-11-05T05:18:56.892Z,68.60
2018-11-05T05:21:29.631Z,68.53
2018-11-05T05:24:02.975Z,68.61
2018-11-05T05:26:35.975Z,68.61
2018-11-05T05:29:08.973Z,69.03
2018-11-05T05:31:42.914Z,69.10
2018-11-05T05:34:15.627Z,69.16
2018-11-05T05:36:48.493Z,69.36
2018-11-05T05:39:19.880Z,69.17
2018-11-05T05:41:52.671Z,69.10
2018-11-05T05:44:25.498Z,68.95
2018-11-05T05:46:58.407Z,68.66
2018-11-05T05:49:29.604Z,68.66
2018-11-05T05:52:02.594Z,68.93
2018-11-05T05:54:35.448Z,68.93
2018-11-05T05:59:00.495Z,68.70
2018-11-05T06:01:33.372Z,68.35
2018-11-05T06:04:05.677Z,68.40
2018-11-05T06:06:38.790Z,68.69
2018-11-05T06:09:12.416Z,68.63
2018-11-05T06:11:45.532Z,68.63
2018-11-05T06:14:17.024Z,69.30
2018-11-05T06:16:50.252Z,69.76
2018-11-05T06:19:23.258Z,69.60
2018-11-05T06:21:56.510Z,69.65
2018-11-05T06:24:29.431Z,69.72
2018-11-05T06:27:02.453Z,70.23
2018-11-05T06:29:33.901Z,70.15
2018-11-05T06:32:06.985Z,70.22
2018-11-05T06:34:40.140Z,69.91
2018-11-05T06:37:14.256Z,69.91
2018-11-05T06:39:48.416Z,69.93
2018-11-05T06:42:20.036Z,69.60
2018-11-05T06:44:53.173Z,69.49
2018-11-05T06:47:26.138Z,69.15
2018-11-05T06:49:59.405Z,69.36
2018-11-05T06:52:31.372Z,69.13
2018-11-05T06:55:02.887Z,69.15
2018-11-05T06:57:35.945Z,69.19
2018-11-05T07:00:15.986Z,69.07
2018-11-05T07:02:49.265Z,68.75
2018-11-05T07:05:22.457Z,68.57
2018-11-05T07:07:53.902Z,68.68
2018-11-05T07:10:27.239Z,68.44
2018-11-05T07:13:00.360Z,68.47
2018-11-05T07:15:31.908Z,68.41
2018-11-05T07:18:04.973Z,68.05
2018-11-05T07:20:38.118Z,68.08
2018-11-05T07:23:12.268Z,67.99
2018-11-05T07:25:46.480Z,67.89
2018-11-05T07:28:17.898Z,67.99
2018-11-05T07:30:50.825Z,67.87
2018-11-05T07:33:23.668Z,67.90
2018-11-05T07:35:56.666Z,67.55
2018-11-05T07:38:29.637Z,67.07
2018-11-05T07:41:02.636Z,66.92
2018-11-05T07:43:35.671Z,66.21
2018-11-05T07:46:08.619Z,66.21
2018-11-05T07:48:41.517Z,65.69
2018-11-05T07:51:14.498Z,65.07
2018-11-05T07:53:47.431Z,64.44
2018-11-05T07:56:18.978Z,63.69
2018-11-05T07:58:51.665Z,61.66
2018-11-05T08:01:24.491Z,61.66
2018-11-05T08:03:55.901Z,60.47
2018-11-05T08:06:28.692Z,59.68
2018-11-05T08:09:01.631Z,58.33
2018-11-05T08:11:34.639Z,57.53
2018-11-05T08:14:07.702Z,56.44
2018-11-05T08:16:40.617Z,56.39
2018-11-05T08:19:12.260Z,56.39
2018-11-05T08:21:45.528Z,55.21
2018-11-05T08:24:17.257Z,54.45
2018-11-05T08:26:50.260Z,54.41
2018-11-05T08:29:23.376Z,54.64
2018-11-05T08:31:54.893Z,55.13
2018-11-05T08:34:27.905Z,55.71
2018-11-05T08:37:01.123Z,55.52
2018-11-05T08:39:34.258Z,55.68
2018-11-05T08:42:07.428Z,55.97
2018-11-05T08:44:39.049Z,55.76
2018-11-05T08:47:12.271Z,55.63
2018-11-05T08:49:45.423Z,56.77
2018-11-05T08:52:18.463Z,56.77
2018-11-05T08:54:49.908Z,56.51
2018-11-05T08:57:22.703Z,55.86
2018-11-05T08:59:55.678Z,56.52
2018-11-05T09:02:28.641Z,56.28
2018-11-05T09:05:01.741Z,56.09
2018-11-05T09:07:34.664Z,55.72
2018-11-05T09:10:08.254Z,55.54
2018-11-05T09:12:41.263Z,55.54
2018-11-05T09:15:19.436Z,54.87
2018-11-05T09:17:50.897Z,54.87
2018-11-05T09:20:23.645Z,54.96
2018-11-05T09:22:56.675Z,54.96
2018-11-05T09:25:29.494Z,54.74
2018-11-05T09:28:00.945Z,54.14
2018-11-05T09:30:33.716Z,53.97
2018-11-05T09:33:06.680Z,53.84
2018-11-05T09:35:39.629Z,53.09
2018-11-05T09:38:12.411Z,53.09
2018-11-05T09:40:45.424Z,53.03
2018-11-05T09:43:17.357Z,52.28
2018-11-05T09:45:50.903Z,52.28
2018-11-05T09:48:24.152Z,51.71
2018-11-05T09:50:59.143Z,51.46
2018-11-05T09:53:34.266Z,50.97
2018-11-05T09:56:07.459Z,50.88
2018-11-05T09:58:39.083Z,50.18
2018-11-05T10:01:13.213Z,50.05
2018-11-05T10:03:59.328Z,50.38
2018-11-05T10:06:32.326Z,50.16
2018-11-05T10:09:05.658Z,50.53
2018-11-05T10:11:38.649Z,50.76
2018-11-05T10:14:11.691Z,49.45
2018-11-05T10:16:44.789Z,48.50
2018-11-05T10:19:17.639Z,46.68
2018-11-05T10:21:50.681Z,46.68
2018-11-05T10:24:23.679Z,44.27
2018-11-05T10:26:56.643Z,43.48
2018-11-05T10:29:29.762Z,43.37
2018-11-05T10:32:02.990Z,43.37
2018-11-05T10:34:36.139Z,42.30
2018-11-05T10:37:09.202Z,41.44
2018-11-05T10:39:42.420Z,40.99
2018-11-05T10:42:15.442Z,41.25
2018-11-05T10:44:46.908Z,40.83
2018-11-05T10:47:20.257Z,39.73
2018-11-05T10:49:53.259Z,39.98
2018-11-05T10:52:26.284Z,41.16
2018-11-05T10:55:05.262Z,41.51
2018-11-05T10:57:38.465Z,41.29
2018-11-05T11:00:37.117Z,40.65
2018-11-05T11:03:16.426Z,39.90
2018-11-05T11:05:49.429Z,38.94
2018-11-05T11:08:22.445Z,38.73
2018-11-05T11:10:55.442Z,38.50
2018-11-05T11:13:26.904Z,37.92
2018-11-05T11:16:00.135Z,37.37
2018-11-05T11:18:33.122Z,36.98
2018-11-05T11:21:06.253Z,37.57
2018-11-05T11:23:39.257Z,37.18
2018-11-05T11:26:12.426Z,37.67
2018-11-05T11:28:44.362Z,36.27
2018-11-05T11:31:17.419Z,36.61
2018-11-05T11:33:49.716Z,36.80
2018-11-05T11:36:22.766Z,35.77
2018-11-05T11:38:55.645Z,35.46
2018-11-05T11:41:28.681Z,35.94
2018-11-05T11:44:01.703Z,35.94
2018-11-05T11:46:34.632Z,35.96
2018-11-05T11:49:08.368Z,35.96
2018-11-05T11:51:39.907Z,37.32
2018-11-05T11:54:13.261Z,38.82
2018-11-05T11:56:46.505Z,38.61
2018-11-05T11:59:19.663Z,38.45
2018-11-05T12:02:10.395Z,37.81
2018-11-05T12:04:41.668Z,37.81
2018-11-05T12:07:14.985Z,37.61
2018-11-05T12:09:48.413Z,38.25
2018-11-05T12:12:20.022Z,39.52
2018-11-05T12:14:53.212Z,39.44
2018-11-05T12:17:26.256Z,39.38
2018-11-05T12:19:59.258Z,39.98
2018-11-05T12:22:32.262Z,40.55
2018-11-05T12:25:05.531Z,41.02
2018-11-05T12:27:36.895Z,42.45
2018-11-05T12:30:16.129Z,43.52
2018-11-05T12:32:51.151Z,44.48
2018-11-05T12:35:24.279Z,45.58
2018-11-05T12:37:57.444Z,46.37
2018-11-05T12:40:28.887Z,46.54
2018-11-05T12:43:01.989Z,46.54
2018-11-05T12:45:35.135Z,46.62
2018-11-05T12:48:08.554Z,47.19
2018-11-05T12:50:41.600Z,47.06
2018-11-05T12:53:16.258Z,46.81
2018-11-05T12:55:49.476Z,46.51
2018-11-05T12:58:20.899Z,46.03
2018-11-05T13:00:53.803Z,46.88
2018-11-05T13:03:26.645Z,46.88
2018-11-05T13:05:59.639Z,47.69
2018-11-05T13:08:32.812Z,48.00
2018-11-05T13:11:05.916Z,48.00
2018-11-05T13:13:38.915Z,48.69
2018-11-05T13:16:12.157Z,48.96
2018-11-05T13:18:46.430Z,49.74
2018-11-05T13:21:18.307Z,50.49
2018-11-05T13:23:51.442Z,50.49
2018-11-05T13:26:24.409Z,50.84
2018-11-05T13:28:55.891Z,51.01
2018-11-05T13:31:29.116Z,51.53
2018-11-05T13:34:02.106Z,51.74
2018-11-05T13:36:35.319Z,51.58
2018-11-05T13:39:11.634Z,51.54
2018-11-05T13:41:44.618Z,51.72
2018-11-05T13:44:17.431Z,51.64
2018-11-05T13:46:50.683Z,51.80
2018-11-05T13:49:23.624Z,51.99
2018-11-05T13:51:56.434Z,52.31
2018-11-05T13:54:29.612Z,52.53
2018-11-05T13:57:02.513Z,52.59
2018-11-05T13:59:33.895Z,52.45
2018-11-05T14:02:07.402Z,52.35
2018-11-05T14:04:38.962Z,52.56
2018-11-05T14:07:12.235Z,52.67
2018-11-05T14:09:45.252Z,52.78
2018-11-05T14:12:18.650Z,53.01
2018-11-05T14:14:51.639Z,53.17
2018-11-05T14:17:24.667Z,53.26
2018-11-05T14:19:57.672Z,53.22
2018-11-05T14:22:30.672Z,53.36
2018-11-05T14:25:03.653Z,53.85
2018-11-05T14:27:36.843Z,53.81
2018-11-05T14:30:12.599Z,53.81
2018-11-05T14:32:45.077Z,53.82
2018-11-05T14:35:18.393Z,54.00
2018-11-05T14:37:49.899Z,54.25
2018-11-05T14:40:23.128Z,54.58
2018-11-05T14:42:56.339Z,54.76
2018-11-05T14:45:29.393Z,55.08
2018-11-05T14:48:01.887Z,55.28
2018-11-05T14:50:35.120Z,55.28
2018-11-05T14:53:09.124Z,56.00
2018-11-05T14:55:43.147Z,56.00
2018-11-05T14:58:17.247Z,56.13
2018-11-05T15:00:50.444Z,56.23
2018-11-05T15:03:22.243Z,56.61
2018-11-05T15:05:56.479Z,56.81
2018-11-05T15:08:27.886Z,56.63
2018-11-05T15:11:01.225Z,56.62
2018-11-05T15:13:34.450Z,56.81
2018-11-05T15:16:07.481Z,56.75
2018-11-05T15:18:40.634Z,56.79
2018-11-05T15:21:13.542Z,56.80
2018-11-05T15:23:46.409Z,56.96
2018-11-05T15:26:17.695Z,57.06
2018-11-05T15:28:50.665Z,57.58
2018-11-05T15:31:23.764Z,57.74
2018-11-05T15:33:56.796Z,57.74
2018-11-05T15:36:29.915Z,58.06
2018-11-05T15:39:02.896Z,58.04
2018-11-05T15:41:36.246Z,58.07
2018-11-05T15:44:09.982Z,58.19
2018-11-05T15:46:42.977Z,58.34
2018-11-05T15:49:16.136Z,58.41
2018-11-05T15:51:50.620Z,58.41
2018-11-05T15:54:24.571Z,58.50
2018-11-05T15:56:57.451Z,58.44
2018-11-05T15:59:28.892Z,58.51
2018-11-05T16:02:14.968Z,58.51
2018-11-05T16:04:48.194Z,58.45
2018-11-05T16:07:24.396Z,58.54
2018-11-05T16:09:55.896Z,58.81
2018-11-05T16:12:29.130Z,59.21
2018-11-05T16:15:02.407Z,59.19
2018-11-05T16:17:35.438Z,59.14
2018-11-05T16:20:07.441Z,59.08
2018-11-05T16:22:39.077Z,59.15
2018-11-05T16:26:37.676Z,59.15
2018-11-05T16:29:10.628Z,59.08
2018-11-05T16:31:42.261Z,59.08
2018-11-05T16:34:15.490Z,59.09
2018-11-05T16:36:48.473Z,59.24
2018-11-05T16:39:21.427Z,59.58
2018-11-05T16:41:52.961Z,59.55
2018-11-05T16:44:26.123Z,59.35
2018-11-05T16:46:59.274Z,59.26
2018-11-05T16:49:32.388Z,59.20
2018-11-05T16:52:03.892Z,59.20
2018-11-05T16:54:36.626Z,58.96
2018-11-05T16:57:09.775Z,58.76
2018-11-05T16:59:43.348Z,58.76
2018-11-05T17:02:17.898Z,58.71
2018-11-05T17:04:48.889Z,58.67
2018-11-05T17:07:21.660Z,58.60
2018-11-05T17:09:54.610Z,58.60
2018-11-05T17:12:27.468Z,58.58
2018-11-05T17:14:58.887Z,58.58
2018-11-05T17:17:31.611Z,58.17
2018-11-05T17:20:04.452Z,58.35
2018-11-05T17:22:35.879Z,58.50
2018-11-05T17:25:09.968Z,58.50
2018-11-05T17:27:43.394Z,58.38
2018-11-05T17:30:19.383Z,58.38
2018-11-05T17:32:50.800Z,58.22
2018-11-05T17:35:23.650Z,58.01
2018-11-05T17:37:56.630Z,58.14
2018-11-05T17:40:29.611Z,58.43
2018-11-05T17:43:02.474Z,58.43
2018-11-05T17:45:33.887Z,58.32
2018-11-05T17:48:06.800Z,58.14
2018-11-05T17:50:39.635Z,57.97
2018-11-05T17:53:12.480Z,57.96
2018-11-05T17:55:45.405Z,58.00
2018-11-05T17:58:18.510Z,57.89
2018-11-05T18:00:51.386Z,57.67
2018-11-05T18:03:24.522Z,57.67
2018-11-05T18:05:57.435Z,57.68
2018-11-05T18:08:30.482Z,58.12
2018-11-05T18:11:03.403Z,58.12
2018-11-05T18:13:36.390Z,58.17
2018-11-05T18:16:30.159Z,58.33
2018-11-05T18:19:03.228Z,58.31
2018-11-05T18:21:36.123Z,58.31
2018-11-05T18:24:09.479Z,58.17
2018-11-05T18:26:40.606Z,58.24
2018-11-05T18:29:13.416Z,58.24
2018-11-05T18:31:44.889Z,58.36
2018-11-05T18:34:17.615Z,58.29
2018-11-05T18:36:50.392Z,58.29
2018-11-05T18:39:23.464Z,58.35
2018-11-05T18:41:54.887Z,58.13
2018-11-05T18:44:27.646Z,58.11
2018-11-05T18:47:00.429Z,57.95
2018-11-05T18:49:31.980Z,58.08
2018-11-05T18:52:05.247Z,58.06
2018-11-05T18:54:38.610Z,58.02
2018-11-05T18:57:11.557Z,58.01
2018-11-05T18:59:42.672Z,57.85
2018-11-05T19:02:35.322Z,58.11
2018-11-05T19:05:08.359Z,58.11
2018-11-05T19:07:41.526Z,58.30
2018-11-05T19:11:43.354Z,58.52
2018-11-05T19:14:16.942Z,58.43
2018-11-05T19:16:50.274Z,58.43
2018-11-05T19:19:23.444Z,58.36
2018-11-05T19:21:56.621Z,58.54
2018-11-05T19:24:29.635Z,58.49
2018-11-05T19:27:01.266Z,58.42
2018-11-05T19:29:34.534Z,58.53
2018-11-05T19:32:08.564Z,58.69
2018-11-05T19:34:40.127Z,58.69
2018-11-05T19:37:13.677Z,58.53
2018-11-05T19:39:45.570Z,58.68
2018-11-05T19:42:18.931Z,58.71
2018-11-05T19:44:50.513Z,58.71
2018-11-05T19:47:22.209Z,58.90
2018-11-05T19:49:56.266Z,58.78
2018-11-05T19:52:29.747Z,59.31
2018-11-05T19:55:03.272Z,59.32
2018-11-05T19:57:36.824Z,59.34
2018-11-05T20:02:55.767Z,59.53
2018-11-05T20:05:29.353Z,59.57
2018-11-05T20:08:02.553Z,59.72
2018-11-05T20:10:34.584Z,60.14
2018-11-05T20:13:07.496Z,60.20
2018-11-05T20:15:40.805Z,60.25
2018-11-05T20:18:12.423Z,60.11
2018-11-05T20:20:45.328Z,59.91
2018-11-05T20:23:18.253Z,59.76
2018-11-05T20:25:51.152Z,59.76
2018-11-05T20:28:24.562Z,59.68
2018-11-05T20:30:57.526Z,59.47
2018-11-05T20:33:30.499Z,59.36
2018-11-05T20:36:03.423Z,59.29
2018-11-05T20:38:36.466Z,59.35
2018-11-05T20:41:07.889Z,59.42
2018-11-05T20:43:40.648Z,59.34
2018-11-05T20:46:12.072Z,59.50
2018-11-05T20:48:44.614Z,59.63
2018-11-05T20:51:17.450Z,59.38
2018-11-05T20:53:50.356Z,59.42
2018-11-05T20:56:23.119Z,59.62
2018-11-05T20:58:56.104Z,59.48
2018-11-05T21:01:28.631Z,59.56
2018-11-05T21:04:01.391Z,59.80
2018-11-05T21:06:34.172Z,59.73
2018-11-05T21:09:09.040Z,59.81
2018-11-05T21:11:41.631Z,59.74
2018-11-05T21:14:14.443Z,59.78
2018-11-05T21:16:47.207Z,59.71
2018-11-05T21:19:19.659Z,59.75
2018-11-05T21:21:52.647Z,59.68
2018-11-05T21:24:25.467Z,59.66
2018-11-05T21:26:58.581Z,59.54
2018-11-05T21:29:31.145Z,59.59
2018-11-05T21:32:03.660Z,59.42
2018-11-05T21:34:34.898Z,59.23
2018-11-05T21:37:07.666Z,59.20
2018-11-05T21:39:40.942Z,59.20
2018-11-05T21:42:13.614Z,59.30
2018-11-05T21:44:44.898Z,59.30
2018-11-05T21:47:16.388Z,59.14
2018-11-05T21:49:48.973Z,58.99
2018-11-05T21:52:21.535Z,59.23
2018-11-05T21:54:54.405Z,59.23
2018-11-05T21:57:27.381Z,59.07
2018-11-05T22:00:00.257Z,58.77
2018-11-05T22:02:51.313Z,58.71
2018-11-05T22:05:24.147Z,58.81
2018-11-05T22:07:57.249Z,58.71
2018-11-05T22:10:29.763Z,59.05
2018-11-05T22:13:02.449Z,59.22
2018-11-05T22:15:54.975Z,59.25
2018-11-05T22:18:27.977Z,59.32
2018-11-05T22:21:00.647Z,59.32
2018-11-05T22:23:33.398Z,59.32
2018-11-05T22:26:06.152Z,59.32
2018-11-05T22:28:38.670Z,58.96
2018-11-05T22:31:11.432Z,58.92
2018-11-05T22:33:44.408Z,59.02
2018-11-05T22:36:17.460Z,59.36
2018-11-05T22:38:50.356Z,59.78
2018-11-05T22:41:23.480Z,59.88
2018-11-05T22:43:54.881Z,60.22
2018-11-05T22:46:27.486Z,60.45
2018-11-05T22:49:00.372Z,60.45
2018-11-05T22:51:33.369Z,60.42
2018-11-05T22:54:06.442Z,60.37
2018-11-05T22:56:39.367Z,60.39
2018-11-05T22:59:12.331Z,60.31
2018-11-05T23:01:55.895Z,60.33
2018-11-05T23:04:28.477Z,60.81
2018-11-05T23:07:01.405Z,60.81
2018-11-05T23:09:34.152Z,61.03
2018-11-05T23:12:07.054Z,61.04
2018-11-05T23:14:40.163Z,60.61
2018-11-05T23:17:12.627Z,60.76
2018-11-05T23:19:43.873Z,60.98
2018-11-05T23:22:16.524Z,60.98
2018-11-05T23:24:47.829Z,61.01
2018-11-05T23:27:20.640Z,61.10
2018-11-05T23:29:51.873Z,61.27
2018-11-05T23:32:26.815Z,61.73
2018-11-05T23:34:59.413Z,61.66
2018-11-05T23:37:32.350Z,61.52
2018-11-05T23:40:05.250Z,61.58
2018-11-05T23:42:38.568Z,61.80
2018-11-05T23:45:16.464Z,61.68
2018-11-05T23:47:49.253Z,62.07
2018-11-05T23:50:21.774Z,61.95
2018-11-05T23:56:13.568Z,62.42
2018-11-05T23:58:46.487Z,62.45
